Airfield :
LOGIN :

Register | Disclaimer

   EN    FR    IT 

 










Legend :    VFR   Marginal VFR   IFR   Intensive IFR   Very Intensive IFR
Visi :
Ceiling :
>= 8 km
>= 3000ft
5 to 8 km
1000 to 3000 ft
1500m to 5 km
500 to 1000 ft
800 to 1500m
200 to 500 ft
< 800m
< 200 ft
Symbols :   Thunderstorms  Fog  Heavy snow  Heavy precipitations  Wind > 20 kt
SIGMETs :     Misc.  Thunderstorms  Icing  Turbulence  Mountain Waves  Volcanic Ashes







- Airport Elevation : 2555 ft
- IATA code : ADJ


OJAM - Marka Int.

CURRENT METAR :
  • 211330Z 25022KT 5000 SHGS SCT025CB BKN030 07/05 Q1013 NOSIG

EXPIRED METARs :
  • 211300Z 25018KT 6000 FEW025TCU BKN030 SCT100 09/04 Q1013 NOSIG
  • 211200Z 29019KT 7000 FEW025CB BKN030 SCT120 09/04 Q1013 NOSIG
  • 211100Z 25020KT 3500 RA FEW020TCU SCT025 SCT030 05/04 Q1013 NOSIG

TAF TAF OJAM
Valid from the 21 at 12:00 until the 22 at 18:00 UTC


211100Z 2112/2218 28018KT 5000 BR FEW020TCU SCT030 SCT035
TEMPO 2112/2118 29026KT 2000 TSRAGR BR FEW020CB SCT025 BKN030
BECMG 2118/2120 28012KT 4000 SCT030 SCT035
PROB40
TEMPO 2206/2210 3000 -RA BR FEW030 BKN035
OJAC FIR / Asia



MET'MAP, your aeronautical weather chart ! - Copyright ORBIFLY December 2007 - Disclaimer

ORBIFLY MET'MAP TEAM :

Programming & Development : Alexandra Zaïnal
Concept & Development : Baudouin d'Aumeries
Co-Development & Prog : Marc-Olivier Méhu
Technical & hardware support : Manuel Goepfert

Contact : metmap@orbifly.com




SOURCES & CREDITS :

   NOAA